createdAt,value
2022-09-30T00:00:23.832Z,25.00
2022-09-30T00:02:30.752Z,24.90
2022-09-30T00:04:37.786Z,24.90
2022-09-30T00:06:45.084Z,24.90
2022-09-30T00:08:54.090Z,25.00
2022-09-30T00:11:05.443Z,25.00
2022-09-30T00:13:12.443Z,25.00
2022-09-30T00:15:20.448Z,25.00
2022-09-30T00:17:27.544Z,25.00
2022-09-30T00:19:34.706Z,25.10
2022-09-30T00:21:41.683Z,25.00
2022-09-30T00:23:49.683Z,25.00
2022-09-30T00:26:01.946Z,25.00
2022-09-30T00:28:09.221Z,25.00
2022-09-30T00:30:16.657Z,25.10
2022-09-30T00:32:23.484Z,25.10
2022-09-30T00:34:30.609Z,25.10
2022-09-30T00:36:39.888Z,25.10
2022-09-30T00:38:47.122Z,25.10
2022-09-30T00:40:54.466Z,25.10
2022-09-30T00:43:03.389Z,25.20
2022-09-30T00:45:11.748Z,25.20
2022-09-30T00:47:46.843Z,25.20
2022-09-30T00:49:55.033Z,25.20
2022-09-30T00:52:02.474Z,25.20
2022-09-30T00:54:13.597Z,25.30
2022-09-30T00:56:23.446Z,25.20
2022-09-30T00:58:38.306Z,25.30
2022-09-30T01:00:45.600Z,25.30
2022-09-30T01:02:53.431Z,25.30
2022-09-30T01:05:01.385Z,25.30
2022-09-30T01:07:10.764Z,25.30
2022-09-30T01:09:17.794Z,25.30
2022-09-30T01:11:25.537Z,25.40
2022-09-30T01:13:37.181Z,25.40
2022-09-30T01:15:58.974Z,25.40
2022-09-30T01:18:12.067Z,25.40
2022-09-30T01:20:46.438Z,25.50
2022-09-30T01:23:07.695Z,25.50
2022-09-30T01:25:29.588Z,25.50
2022-09-30T01:27:53.503Z,25.50
2022-09-30T01:30:10.877Z,25.50
2022-09-30T01:32:30.395Z,25.50
2022-09-30T01:34:49.149Z,25.50
2022-09-30T01:37:10.822Z,25.50
2022-09-30T01:39:31.423Z,25.50
2022-09-30T01:41:53.540Z,25.50
2022-09-30T01:44:04.214Z,25.50
2022-09-30T01:46:20.871Z,25.50
2022-09-30T01:48:37.070Z,25.40
2022-09-30T01:50:50.337Z,25.40
2022-09-30T01:53:03.806Z,25.50
2022-09-30T01:55:17.849Z,25.50
2022-09-30T01:57:30.616Z,25.40
2022-09-30T01:59:40.625Z,25.40
2022-09-30T02:01:54.340Z,25.40
2022-09-30T02:04:08.180Z,25.40
2022-09-30T02:06:21.606Z,25.40
2022-09-30T02:08:34.575Z,25.40
2022-09-30T02:10:47.848Z,25.50
2022-09-30T02:12:59.442Z,25.50
2022-09-30T02:15:12.202Z,25.50
2022-09-30T02:17:24.548Z,25.50
2022-09-30T02:19:38.745Z,25.60
2022-09-30T02:21:49.561Z,25.60
2022-09-30T02:24:01.299Z,25.70
2022-09-30T02:26:12.169Z,25.70
2022-09-30T02:28:28.156Z,25.70
2022-09-30T02:30:36.926Z,25.70
2022-09-30T02:32:47.948Z,25.80
2022-09-30T02:35:02.297Z,25.80
2022-09-30T02:37:13.574Z,25.80
2022-09-30T02:39:29.409Z,25.80
2022-09-30T02:41:40.736Z,25.80
2022-09-30T02:43:48.382Z,25.80
2022-09-30T02:46:02.933Z,25.80
2022-09-30T02:48:21.908Z,25.80
2022-09-30T02:50:36.343Z,25.80
2022-09-30T02:52:52.532Z,25.80
2022-09-30T02:55:11.801Z,25.80
2022-09-30T02:57:25.587Z,25.80
2022-09-30T02:59:32.520Z,25.80
2022-09-30T03:01:42.985Z,25.80
2022-09-30T03:03:52.919Z,25.90
2022-09-30T03:06:01.738Z,25.90
2022-09-30T03:08:08.765Z,25.90
2022-09-30T03:10:20.121Z,25.90
2022-09-30T03:12:38.130Z,25.90
2022-09-30T03:15:19.977Z,25.90
2022-09-30T03:17:58.492Z,25.90
2022-09-30T03:20:23.763Z,26.00
2022-09-30T03:22:49.315Z,26.10
2022-09-30T03:25:06.733Z,26.10
2022-09-30T03:27:20.586Z,26.10
2022-09-30T03:29:37.279Z,26.10
2022-09-30T03:31:50.637Z,26.20
2022-09-30T03:34:01.982Z,26.10
2022-09-30T03:36:16.544Z,26.20
2022-09-30T03:38:37.028Z,26.20
2022-09-30T03:40:55.732Z,26.20
2022-09-30T03:43:09.567Z,26.30
2022-09-30T03:45:24.074Z,26.30
2022-09-30T03:47:34.090Z,26.30
2022-09-30T03:49:45.811Z,26.40
2022-09-30T03:51:51.963Z,26.40
2022-09-30T03:54:01.605Z,26.40
2022-09-30T03:56:08.633Z,26.40
2022-09-30T03:58:16.127Z,26.40
2022-09-30T04:00:24.019Z,26.40
2022-09-30T04:02:31.539Z,26.40
2022-09-30T04:04:39.150Z,26.50
2022-09-30T04:06:46.485Z,26.40
2022-09-30T04:08:54.950Z,26.40
2022-09-30T04:11:03.562Z,26.40
2022-09-30T04:13:13.055Z,26.40
2022-09-30T04:15:20.437Z,26.40
2022-09-30T04:17:27.786Z,26.40
2022-09-30T04:21:54.370Z,26.40
2022-09-30T04:24:01.760Z,26.40
2022-09-30T04:26:13.914Z,26.50
2022-09-30T04:28:21.387Z,26.60
2022-09-30T04:30:32.684Z,26.70
2022-09-30T04:32:43.592Z,26.70
2022-09-30T04:34:50.618Z,26.80
2022-09-30T04:36:57.849Z,26.70
2022-09-30T04:39:05.135Z,26.70
2022-09-30T04:41:18.306Z,26.70
2022-09-30T04:43:25.488Z,26.70
2022-09-30T04:45:32.748Z,26.60
2022-09-30T04:47:40.827Z,26.60
2022-09-30T04:49:48.212Z,26.50
2022-09-30T04:51:55.394Z,26.50
2022-09-30T04:54:02.633Z,26.50
2022-09-30T04:56:10.372Z,26.40
2022-09-30T04:58:19.036Z,26.40
2022-09-30T05:00:26.168Z,26.40
2022-09-30T05:02:33.552Z,26.40
2022-09-30T05:04:40.716Z,26.40
2022-09-30T05:06:47.923Z,26.50
2022-09-30T05:08:55.150Z,26.50
2022-09-30T05:11:03.513Z,26.60
2022-09-30T05:13:10.384Z,26.70
2022-09-30T05:15:19.410Z,26.70
2022-09-30T05:17:26.487Z,26.70
2022-09-30T05:19:34.078Z,26.70
2022-09-30T05:21:41.927Z,26.60
2022-09-30T05:23:48.953Z,26.60
2022-09-30T05:25:56.651Z,26.70
2022-09-30T05:28:03.930Z,26.80
2022-09-30T05:30:11.881Z,27.00
2022-09-30T05:32:22.390Z,27.00
2022-09-30T05:34:29.572Z,27.10
2022-09-30T05:36:36.651Z,27.10
2022-09-30T05:38:43.594Z,27.00
2022-09-30T05:40:50.451Z,27.00
2022-09-30T05:42:59.577Z,27.00
2022-09-30T05:45:06.505Z,27.00
2022-09-30T05:47:13.992Z,27.10
2022-09-30T05:49:23.127Z,27.20
2022-09-30T05:51:30.257Z,27.20
2022-09-30T05:53:39.947Z,27.10
2022-09-30T05:55:50.143Z,27.10
2022-09-30T05:58:01.036Z,27.10
2022-09-30T06:00:09.319Z,27.20
2022-09-30T06:02:19.384Z,27.20
2022-09-30T06:04:27.983Z,27.20
2022-09-30T06:06:34.909Z,27.30
2022-09-30T06:08:42.407Z,27.40
2022-09-30T06:10:49.375Z,27.50
2022-09-30T06:12:56.558Z,27.70
2022-09-30T06:15:03.390Z,27.70
2022-09-30T06:17:10.570Z,27.70
2022-09-30T06:19:17.814Z,27.70
2022-09-30T06:21:26.666Z,27.70
2022-09-30T06:23:33.747Z,27.60
2022-09-30T06:25:40.927Z,27.60
2022-09-30T06:27:49.438Z,27.50
2022-09-30T06:29:56.372Z,27.50
2022-09-30T06:32:03.378Z,27.50
2022-09-30T06:34:11.554Z,27.50
2022-09-30T06:36:18.473Z,27.50
2022-09-30T06:38:28.418Z,27.50
2022-09-30T06:40:35.453Z,27.50
2022-09-30T06:42:44.932Z,27.50
2022-09-30T06:44:53.597Z,27.50
2022-09-30T06:47:01.352Z,27.60
2022-09-30T06:49:24.118Z,27.70
2022-09-30T06:51:34.344Z,27.80
2022-09-30T06:53:44.393Z,28.00
2022-09-30T06:55:51.218Z,28.10
2022-09-30T06:57:58.552Z,28.20
2022-09-30T07:00:06.143Z,28.20
2022-09-30T07:02:14.407Z,28.10
2022-09-30T07:04:21.531Z,28.10
2022-09-30T07:06:29.377Z,28.10
2022-09-30T07:08:37.994Z,28.00
2022-09-30T07:10:50.607Z,28.10
2022-09-30T07:12:57.587Z,28.00
2022-09-30T07:15:04.768Z,28.00
2022-09-30T07:17:11.582Z,28.00
2022-09-30T07:19:18.792Z,27.90
2022-09-30T07:21:25.742Z,27.90
2022-09-30T07:23:33.077Z,27.80
2022-09-30T07:25:39.957Z,27.70
2022-09-30T07:27:48.978Z,27.60
2022-09-30T07:30:17.089Z,27.60
2022-09-30T07:32:24.508Z,27.50
2022-09-30T07:34:31.571Z,27.50
2022-09-30T07:36:40.233Z,27.50
2022-09-30T07:38:47.873Z,27.40
2022-09-30T07:41:00.537Z,27.40
2022-09-30T07:43:09.455Z,27.50
2022-09-30T07:45:17.304Z,27.50
2022-09-30T07:47:24.894Z,27.50
2022-09-30T07:49:33.047Z,27.60
2022-09-30T07:51:42.075Z,27.60
2022-09-30T07:53:51.409Z,27.70
2022-09-30T07:55:58.382Z,27.80
2022-09-30T07:58:07.099Z,27.90
2022-09-30T08:00:41.189Z,27.90
2022-09-30T08:02:43.754Z,28.00
2022-09-30T08:04:51.069Z,28.00
2022-09-30T08:06:59.794Z,28.00
2022-09-30T08:09:07.220Z,28.00
2022-09-30T08:11:15.585Z,28.00
2022-09-30T08:13:22.613Z,28.00
2022-09-30T08:15:31.586Z,28.00
2022-09-30T08:17:38.563Z,27.90
2022-09-30T08:19:45.862Z,27.90
2022-09-30T08:21:54.306Z,27.80
2022-09-30T08:24:01.802Z,27.80
2022-09-30T08:26:09.759Z,27.70
2022-09-30T08:28:18.568Z,27.70
2022-09-30T08:30:25.390Z,27.70
2022-09-30T08:32:36.362Z,27.70
2022-09-30T08:34:43.184Z,27.70
2022-09-30T08:36:50.217Z,27.60
2022-09-30T08:38:58.165Z,27.60
2022-09-30T08:41:15.686Z,27.60
2022-09-30T08:43:31.778Z,27.70
2022-09-30T08:45:47.106Z,27.60
2022-09-30T08:48:08.917Z,27.70
2022-09-30T08:50:25.988Z,27.70
2022-09-30T08:52:48.450Z,27.60
2022-09-30T08:54:58.584Z,27.60
2022-09-30T08:57:07.500Z,27.60
2022-09-30T08:59:24.597Z,27.60
2022-09-30T09:01:36.128Z,27.60
2022-09-30T09:03:46.299Z,27.50
2022-09-30T09:05:59.001Z,27.50
2022-09-30T09:08:11.219Z,27.50
2022-09-30T09:10:30.781Z,27.50
2022-09-30T09:12:45.389Z,27.50
2022-09-30T09:15:05.266Z,27.40
2022-09-30T09:17:25.151Z,27.40
2022-09-30T09:19:41.443Z,27.40
2022-09-30T09:21:58.043Z,27.40
2022-09-30T09:24:06.147Z,27.40
2022-09-30T09:26:14.455Z,27.40
2022-09-30T09:28:31.051Z,27.40
2022-09-30T09:30:44.589Z,27.40
2022-09-30T09:32:56.327Z,27.40
2022-09-30T09:35:13.133Z,27.40
2022-09-30T09:37:48.169Z,27.40
2022-09-30T09:40:10.507Z,27.40
2022-09-30T09:42:36.042Z,27.30
2022-09-30T09:44:50.471Z,27.30
2022-09-30T09:47:06.611Z,27.30
2022-09-30T09:49:33.247Z,27.30
2022-09-30T09:51:48.162Z,27.20
2022-09-30T09:53:59.185Z,27.20
2022-09-30T09:56:19.984Z,27.20
2022-09-30T09:58:27.018Z,27.20
2022-09-30T10:00:50.113Z,27.20
2022-09-30T10:03:05.029Z,27.20
2022-09-30T10:05:29.621Z,27.20
2022-09-30T10:07:38.391Z,27.20
2022-09-30T10:09:46.234Z,27.20
2022-09-30T10:11:53.162Z,27.30
2022-09-30T10:14:02.543Z,27.30
2022-09-30T10:16:10.137Z,27.30
2022-09-30T10:18:24.485Z,27.20
2022-09-30T10:20:33.946Z,27.30
2022-09-30T10:22:42.900Z,27.20
2022-09-30T10:24:49.870Z,27.20
2022-09-30T10:26:56.745Z,27.20
2022-09-30T10:29:05.463Z,27.20
2022-09-30T10:31:18.430Z,27.20
2022-09-30T10:33:31.408Z,27.20
2022-09-30T10:35:38.783Z,27.20
2022-09-30T10:37:54.920Z,27.20
2022-09-30T10:40:04.673Z,27.20
2022-09-30T10:42:16.163Z,27.10
2022-09-30T10:44:26.557Z,27.20
2022-09-30T10:46:36.563Z,27.10
2022-09-30T10:48:51.271Z,27.10
2022-09-30T10:51:00.917Z,27.10
2022-09-30T10:53:18.885Z,27.10
2022-09-30T10:55:35.590Z,27.10
2022-09-30T10:57:42.830Z,27.10
2022-09-30T10:59:50.056Z,27.00
2022-09-30T11:02:02.019Z,27.00
2022-09-30T11:04:15.928Z,27.00
2022-09-30T11:06:25.822Z,27.00
2022-09-30T11:08:44.794Z,27.00
2022-09-30T11:10:59.559Z,26.90
2022-09-30T11:13:14.672Z,26.80
2022-09-30T11:15:28.967Z,26.80
2022-09-30T11:17:43.221Z,26.70
2022-09-30T11:19:55.618Z,26.70
2022-09-30T11:22:12.426Z,26.70
2022-09-30T11:24:29.184Z,26.70
2022-09-30T11:26:46.502Z,26.60
2022-09-30T11:29:13.498Z,26.60
2022-09-30T11:31:30.219Z,26.60
2022-09-30T11:33:47.990Z,26.60
2022-09-30T11:36:13.955Z,26.50
2022-09-30T11:38:45.459Z,26.50
2022-09-30T11:41:01.854Z,26.50
2022-09-30T11:43:24.295Z,26.40
2022-09-30T11:48:32.501Z,26.40
2022-09-30T11:50:58.802Z,26.30
2022-09-30T11:53:18.219Z,26.30
2022-09-30T11:55:51.050Z,26.30
2022-09-30T12:00:45.490Z,26.30
2022-09-30T12:03:05.695Z,26.30
2022-09-30T12:05:24.193Z,26.30
2022-09-30T12:10:09.227Z,26.30
2022-09-30T12:14:46.930Z,26.30
2022-09-30T12:16:54.343Z,26.30
2022-09-30T12:19:12.507Z,26.30
2022-09-30T12:23:59.844Z,26.20
2022-09-30T12:26:07.588Z,26.20
2022-09-30T12:28:56.001Z,26.20
2022-09-30T12:34:22.183Z,26.20
2022-09-30T12:36:53.492Z,26.20
2022-09-30T12:39:34.453Z,26.20
2022-09-30T12:42:24.284Z,26.20
2022-09-30T12:45:20.777Z,26.20
2022-09-30T12:47:38.143Z,26.20
2022-09-30T13:02:41.543Z,26.10
2022-09-30T13:04:58.588Z,26.20
2022-09-30T13:07:32.288Z,26.20
2022-09-30T13:12:29.249Z,26.10
2022-09-30T13:14:41.039Z,26.20
2022-09-30T13:17:28.516Z,26.10
2022-09-30T13:19:41.522Z,26.10
2022-09-30T13:21:52.088Z,26.10
2022-09-30T13:24:08.032Z,26.10
2022-09-30T13:26:51.670Z,26.10
2022-09-30T13:29:23.733Z,26.10
2022-09-30T13:31:33.285Z,26.10
2022-09-30T13:33:53.305Z,26.00
2022-09-30T13:36:13.028Z,26.00
2022-09-30T13:38:21.541Z,26.10
2022-09-30T13:41:00.844Z,26.00
2022-09-30T13:43:15.236Z,26.10
2022-09-30T13:45:36.123Z,26.00
2022-09-30T13:47:54.577Z,26.00
2022-09-30T13:50:08.322Z,26.00
2022-09-30T13:52:29.215Z,26.10
2022-09-30T13:54:46.792Z,26.10
2022-09-30T13:56:57.658Z,26.10
2022-09-30T13:59:35.561Z,26.00
2022-09-30T14:02:07.019Z,26.00
2022-09-30T14:04:38.264Z,26.10
2022-09-30T14:06:54.756Z,26.10
2022-09-30T14:09:34.348Z,26.00
2022-09-30T14:12:05.102Z,26.00
2022-09-30T14:14:42.163Z,26.00
2022-09-30T14:17:05.785Z,26.00
2022-09-30T14:19:30.472Z,26.00
2022-09-30T14:21:44.822Z,26.00
2022-09-30T14:24:05.264Z,26.00
2022-09-30T14:26:41.582Z,26.00
2022-09-30T14:29:06.479Z,26.00
2022-09-30T14:31:22.304Z,26.00
2022-09-30T14:33:34.210Z,26.00
2022-09-30T14:35:44.968Z,26.00
2022-09-30T14:37:54.565Z,26.00
2022-09-30T14:40:05.581Z,26.00
2022-09-30T14:42:27.455Z,26.00
2022-09-30T14:44:39.451Z,26.00
2022-09-30T14:46:49.906Z,26.00
2022-09-30T14:48:59.956Z,26.00
2022-09-30T14:51:10.629Z,26.00
2022-09-30T14:53:32.910Z,26.00
2022-09-30T14:55:40.239Z,26.00
2022-09-30T14:57:48.908Z,26.00
2022-09-30T15:00:16.063Z,25.90
2022-09-30T15:02:24.163Z,25.90
2022-09-30T15:04:34.259Z,25.90
2022-09-30T15:06:45.540Z,25.90
2022-09-30T15:08:54.050Z,25.90
2022-09-30T15:11:01.026Z,25.90
2022-09-30T15:13:13.178Z,25.90
2022-09-30T15:15:37.100Z,25.90
2022-09-30T15:17:44.280Z,26.00
2022-09-30T15:19:51.461Z,25.90
2022-09-30T15:22:03.405Z,26.00
2022-09-30T15:24:13.198Z,25.90
2022-09-30T15:26:20.379Z,25.90
2022-09-30T15:28:29.346Z,25.90
2022-09-30T15:30:36.589Z,25.90
2022-09-30T15:32:43.822Z,25.90
2022-09-30T15:34:50.847Z,25.90
2022-09-30T15:37:07.451Z,25.90
2022-09-30T15:39:24.929Z,25.90
2022-09-30T15:41:32.115Z,25.90
2022-09-30T15:43:47.067Z,25.90
2022-09-30T15:45:56.182Z,25.90
2022-09-30T15:48:04.964Z,25.90
2022-09-30T15:50:43.942Z,25.80
2022-09-30T15:52:52.512Z,25.90
2022-09-30T15:55:00.615Z,25.80
2022-09-30T15:57:33.851Z,25.80
2022-09-30T16:00:05.813Z,25.90
2022-09-30T16:02:15.403Z,25.80
2022-09-30T16:04:27.759Z,25.80
2022-09-30T16:06:37.418Z,25.80
2022-09-30T16:08:47.699Z,25.80
2022-09-30T16:10:56.829Z,25.80
2022-09-30T16:13:05.186Z,25.80
2022-09-30T16:15:16.617Z,25.80
2022-09-30T16:17:27.177Z,25.80
2022-09-30T16:19:34.727Z,25.80
2022-09-30T16:21:46.814Z,25.70
2022-09-30T16:24:08.698Z,25.80
2022-09-30T16:26:25.499Z,25.70
2022-09-30T16:28:32.563Z,25.70
2022-09-30T16:30:46.110Z,25.70
2022-09-30T16:32:56.055Z,25.70
2022-09-30T16:35:02.928Z,25.70
2022-09-30T16:37:15.229Z,25.70
2022-09-30T16:39:22.206Z,25.70
2022-09-30T16:41:29.855Z,25.70
2022-09-30T16:43:37.396Z,25.70
2022-09-30T16:45:46.105Z,25.70
2022-09-30T16:47:53.342Z,25.70
2022-09-30T16:50:00.215Z,25.60
2022-09-30T16:52:08.062Z,25.70
2022-09-30T16:54:15.244Z,25.60
2022-09-30T16:56:23.397Z,25.60
2022-09-30T16:58:30.221Z,25.60
2022-09-30T17:00:37.520Z,25.60
2022-09-30T17:02:46.281Z,25.60
2022-09-30T17:04:53.251Z,25.60
2022-09-30T17:07:02.993Z,25.60
2022-09-30T17:09:10.228Z,25.60
2022-09-30T17:11:17.202Z,25.60
2022-09-30T17:13:24.102Z,25.60
2022-09-30T17:15:31.924Z,25.60
2022-09-30T17:17:39.055Z,25.60
2022-09-30T17:19:47.882Z,25.60
2022-09-30T17:21:54.904Z,25.60
2022-09-30T17:24:02.137Z,25.60
2022-09-30T17:26:09.572Z,25.60
2022-09-30T17:28:17.060Z,25.60
2022-09-30T17:30:24.191Z,25.60
2022-09-30T17:32:31.325Z,25.60
2022-09-30T17:34:38.349Z,25.50
2022-09-30T17:36:47.170Z,25.50
2022-09-30T17:38:58.344Z,25.50
2022-09-30T17:41:22.065Z,25.50
2022-09-30T17:43:29.355Z,25.50
2022-09-30T17:45:36.322Z,25.50
2022-09-30T17:47:43.609Z,25.50
2022-09-30T17:49:50.641Z,25.50
2022-09-30T17:52:00.072Z,25.50
2022-09-30T17:54:07.615Z,25.50
2022-09-30T17:56:21.196Z,25.50
2022-09-30T17:58:28.274Z,25.50
2022-09-30T18:00:35.762Z,25.50
2022-09-30T18:02:43.602Z,25.50
2022-09-30T18:04:50.791Z,25.50
2022-09-30T18:06:59.874Z,25.50
2022-09-30T18:09:07.005Z,25.50
2022-09-30T18:11:13.717Z,25.50
2022-09-30T18:13:21.769Z,25.50
2022-09-30T18:15:29.214Z,25.50
2022-09-30T18:17:36.235Z,25.50
2022-09-30T18:19:42.956Z,25.50
2022-09-30T18:21:50.093Z,25.50
2022-09-30T18:24:00.093Z,25.50
2022-09-30T18:26:07.528Z,25.50
2022-09-30T18:28:14.999Z,25.50
2022-09-30T18:30:22.908Z,25.50
2022-09-30T18:32:29.681Z,25.50
2022-09-30T18:34:36.607Z,25.50
2022-09-30T18:36:43.587Z,25.50
2022-09-30T18:38:50.717Z,25.50
2022-09-30T18:40:59.382Z,25.50
2022-09-30T18:43:07.024Z,25.50
2022-09-30T18:45:14.818Z,25.50
2022-09-30T18:47:21.699Z,25.50
2022-09-30T18:49:28.576Z,25.50
2022-09-30T18:51:36.188Z,25.50
2022-09-30T18:53:43.237Z,25.50
2022-09-30T18:55:50.267Z,25.50
2022-09-30T18:58:00.063Z,25.50
2022-09-30T19:00:09.499Z,25.50
2022-09-30T19:02:18.979Z,25.50
2022-09-30T19:04:25.648Z,25.50
2022-09-30T19:06:32.421Z,25.50
2022-09-30T19:08:39.294Z,25.50
2022-09-30T19:10:46.073Z,25.50
2022-09-30T19:12:53.249Z,25.50
2022-09-30T19:15:01.863Z,25.50
2022-09-30T19:17:08.687Z,25.50
2022-09-30T19:19:16.387Z,25.50
2022-09-30T19:21:23.357Z,25.50
2022-09-30T19:23:33.311Z,25.50
2022-09-30T19:25:41.614Z,25.50
2022-09-30T19:27:50.511Z,25.50
2022-09-30T19:29:59.460Z,25.50
2022-09-30T19:32:09.044Z,25.50
2022-09-30T19:34:29.228Z,25.40
2022-09-30T19:36:48.988Z,25.50
2022-09-30T19:39:11.190Z,25.50
2022-09-30T19:41:19.909Z,25.50
2022-09-30T19:43:27.143Z,25.50
2022-09-30T19:45:33.959Z,25.50
2022-09-30T19:47:42.517Z,25.50
2022-09-30T19:49:49.403Z,25.50
2022-09-30T19:51:56.687Z,25.50
2022-09-30T19:54:07.226Z,25.50
2022-09-30T19:56:17.605Z,25.50
2022-09-30T19:58:24.581Z,25.50
2022-09-30T20:00:31.353Z,25.50
2022-09-30T20:02:38.443Z,25.40
2022-09-30T20:04:47.251Z,25.50
2022-09-30T20:06:54.843Z,25.50
2022-09-30T20:09:04.345Z,25.50
2022-09-30T20:11:12.944Z,25.50
2022-09-30T20:13:19.921Z,25.40
2022-09-30T20:15:46.116Z,25.40
2022-09-30T20:17:53.537Z,25.40
2022-09-30T20:20:18.588Z,25.40
2022-09-30T20:22:29.136Z,25.40
2022-09-30T20:24:36.329Z,25.40
2022-09-30T20:26:43.870Z,25.50
2022-09-30T20:28:51.101Z,25.50
2022-09-30T20:30:57.880Z,25.50
2022-09-30T20:33:05.468Z,25.50
2022-09-30T20:35:14.393Z,25.50
2022-09-30T20:37:21.262Z,25.40
2022-09-30T20:39:28.647Z,25.50
2022-09-30T20:41:37.262Z,25.40
2022-09-30T20:43:44.393Z,25.40
2022-09-30T20:45:57.410Z,25.40
2022-09-30T20:48:05.311Z,25.40
2022-09-30T20:50:15.359Z,25.40
2022-09-30T20:52:22.695Z,25.40
2022-09-30T20:54:29.569Z,25.50
2022-09-30T20:57:02.863Z,25.40
2022-09-30T20:59:03.592Z,25.50
2022-09-30T21:01:12.058Z,25.40
2022-09-30T21:03:19.339Z,25.50
2022-09-30T21:05:28.056Z,25.50
2022-09-30T21:07:36.109Z,25.50
2022-09-30T21:09:43.188Z,25.50
2022-09-30T21:11:50.120Z,25.50
2022-09-30T21:13:57.866Z,25.50
2022-09-30T21:16:05.673Z,25.50
2022-09-30T21:18:12.995Z,25.50
2022-09-30T21:20:20.580Z,25.50
2022-09-30T21:22:30.066Z,25.50
2022-09-30T21:24:36.991Z,25.50
2022-09-30T21:26:44.026Z,25.50
2022-09-30T21:28:51.917Z,25.60
2022-09-30T21:30:59.406Z,25.50
2022-09-30T21:33:06.282Z,25.60
2022-09-30T21:35:14.742Z,25.60
2022-09-30T21:37:21.670Z,25.60
2022-09-30T21:39:30.693Z,25.50
2022-09-30T21:41:38.138Z,25.60
2022-09-30T21:43:45.005Z,25.50
2022-09-30T21:45:52.615Z,25.50
2022-09-30T21:48:05.257Z,25.50
2022-09-30T21:50:13.213Z,25.60
2022-09-30T21:52:20.337Z,25.60
2022-09-30T21:54:29.128Z,25.50
2022-09-30T21:56:36.140Z,25.60
2022-09-30T21:58:43.161Z,25.60
2022-09-30T22:00:50.398Z,25.60
2022-09-30T22:02:57.319Z,25.60
2022-09-30T22:05:04.553Z,25.60
2022-09-30T22:07:11.734Z,25.60
2022-09-30T22:09:19.428Z,25.60
2022-09-30T22:11:28.250Z,25.60
2022-09-30T22:13:35.377Z,25.60
2022-09-30T22:15:42.817Z,25.50
2022-09-30T22:17:49.895Z,25.60
2022-09-30T22:19:58.663Z,25.60
2022-09-30T22:22:05.650Z,25.60
2022-09-30T22:24:12.879Z,25.60
2022-09-30T22:26:22.512Z,25.60
2022-09-30T22:28:31.435Z,25.50
2022-09-30T22:30:38.462Z,25.50
2022-09-30T22:32:45.340Z,25.60
2022-09-30T22:35:08.288Z,25.60
2022-09-30T22:37:32.212Z,25.60
2022-09-30T22:39:39.445Z,25.60
2022-09-30T22:41:46.166Z,25.60
2022-09-30T22:43:55.090Z,25.60
2022-09-30T22:46:05.598Z,25.60
2022-09-30T22:48:12.946Z,25.60
2022-09-30T22:50:20.782Z,25.60
2022-09-30T22:52:28.067Z,25.60
2022-09-30T22:54:36.478Z,25.60
2022-09-30T22:56:43.503Z,25.60
2022-09-30T22:58:50.534Z,25.60
2022-09-30T23:01:01.306Z,25.60
2022-09-30T23:03:09.246Z,25.60
2022-09-30T23:05:16.378Z,25.60
2022-09-30T23:07:23.358Z,25.60
2022-09-30T23:09:30.894Z,25.60
2022-09-30T23:11:38.177Z,25.60
2022-09-30T23:13:45.614Z,25.60
2022-09-30T23:15:52.703Z,25.60
2022-09-30T23:18:01.463Z,25.60
2022-09-30T23:20:09.566Z,25.60
2022-09-30T23:22:16.500Z,25.60
2022-09-30T23:24:23.520Z,25.60
2022-09-30T23:26:32.136Z,25.60
2022-09-30T23:28:39.370Z,25.60
2022-09-30T23:30:46.499Z,25.60
2022-09-30T23:32:53.219Z,25.60
2022-09-30T23:35:01.888Z,25.60
2022-09-30T23:37:08.708Z,25.60
2022-09-30T23:39:19.505Z,25.60
2022-09-30T23:41:26.506Z,25.60
2022-09-30T23:43:35.169Z,25.70
2022-09-30T23:45:42.166Z,25.70
2022-09-30T23:47:51.170Z,25.60
2022-09-30T23:49:59.223Z,25.60
2022-09-30T23:52:12.622Z,25.60
2022-09-30T23:54:20.095Z,25.70
2022-09-30T23:56:26.964Z,25.60
2022-09-30T23:58:35.475Z,25.70
